Time;durP1;ratioP1;P1;durP2;ratioP2;P2;SDS_P1;SDS_P2;PMS_P1;PMS_P2;Temp;Humidity;BMP_temperature;BMP_pressure;BME280_temperature;BME280_humidity;BME280_pressure;Samples;Min_cycle;Max_cycle;Signal;HPM_P1;HPM_P2
2022/06/28 00:00:30;;;;;;;30.50;9.38;;;31.20;37.60;;;;;;5013359;28;20125;-71
2022/06/28 00:02:56;;;;;;;43.60;10.38;;;31.10;37.80;;;;;;5013305;28;20033;-70
2022/06/28 00:05:22;;;;;;;41.88;9.88;;;31.10;38.10;;;;;;5012153;28;20022;-72
2022/06/28 00:07:47;;;;;;;44.20;9.20;;;31.10;38.30;;;;;;5013754;28;20050;-71
2022/06/28 00:10:15;;;;;;;43.13;10.27;;;31.00;38.30;;;;;;5013546;28;20112;-70
2022/06/28 00:12:40;;;;;;;37.75;9.80;;;31.10;38.60;;;;;;5013342;28;20026;-71
2022/06/28 00:17:54;;;;;;;30.23;9.98;;;31.00;38.80;;;;;;5013525;28;20391;-70
2022/06/28 00:20:20;;;;;;;41.33;8.27;;;31.00;38.60;;;;;;5013034;28;20026;-70
2022/06/28 00:22:46;;;;;;;40.35;9.55;;;31.00;38.30;;;;;;5013293;28;20033;-71
2022/06/28 00:25:11;;;;;;;33.03;9.20;;;30.90;38.20;;;;;;5012977;28;20026;-70
2022/06/28 00:27:38;;;;;;;34.15;8.50;;;30.90;38.00;;;;;;5012962;28;20036;-70
2022/06/28 00:30:05;;;;;;;34.67;8.55;;;30.90;37.90;;;;;;5013030;28;20028;-71
2022/06/28 00:32:32;;;;;;;31.17;7.53;;;31.00;37.70;;;;;;5013201;28;20029;-71
2022/06/28 00:34:58;;;;;;;35.85;8.35;;;31.00;37.30;;;;;;5011833;28;20053;-70
2022/06/28 00:37:24;;;;;;;31.45;7.65;;;31.00;36.90;;;;;;5012949;28;20022;-70
2022/06/28 00:39:50;;;;;;;33.83;8.15;;;31.00;36.80;;;;;;5011185;28;20040;-71
2022/06/28 00:42:16;;;;;;;38.28;8.80;;;31.00;36.40;;;;;;5012741;28;20057;-71
2022/06/28 00:44:41;;;;;;;31.27;7.72;;;31.00;35.80;;;;;;5013110;28;20564;-71
2022/06/28 00:47:09;;;;;;;42.60;9.90;;;31.00;35.70;;;;;;5012857;28;20100;-71
2022/06/28 00:49:39;;;;;;;31.98;9.35;;;31.00;35.50;;;;;;5012682;28;20092;-70
2022/06/28 00:52:06;;;;;;;29.75;9.05;;;31.00;35.70;;;;;;5012797;28;20114;-71
2022/06/28 00:54:32;;;;;;;39.35;10.15;;;30.90;35.50;;;;;;5012911;28;20387;-70
2022/06/28 00:56:58;;;;;;;32.40;9.30;;;30.90;35.40;;;;;;5012763;28;20030;-70
2022/06/28 00:59:24;;;;;;;36.45;10.32;;;30.90;35.60;;;;;;5012564;28;20030;-71
2022/06/28 01:01:50;;;;;;;33.17;10.52;;;30.90;35.80;;;;;;5012755;28;20379;-70
2022/06/28 01:04:16;;;;;;;39.50;10.02;;;30.80;35.40;;;;;;5012871;28;20390;-71
2022/06/28 01:06:42;;;;;;;41.42;10.32;;;30.80;35.30;;;;;;5012863;28;20037;-72
2022/06/28 01:09:08;;;;;;;35.15;10.82;;;30.80;35.40;;;;;;5013173;28;20066;-72
2022/06/28 01:11:34;;;;;;;32.60;10.95;;;30.70;35.40;;;;;;5013042;28;20018;-70
2022/06/28 01:14:02;;;;;;;38.95;10.25;;;30.70;35.40;;;;;;5012991;28;20549;-71
2022/06/28 01:16:28;;;;;;;49.92;11.60;;;30.60;35.50;;;;;;5013142;28;20030;-71
2022/06/28 01:18:54;;;;;;;41.08;11.52;;;30.60;35.80;;;;;;5012372;28;20480;-71
2022/06/28 01:21:23;;;;;;;47.20;11.35;;;30.50;36.10;;;;;;5013193;28;20084;-71
2022/06/28 01:23:49;;;;;;;36.72;10.85;;;30.40;36.10;;;;;;5012954;28;20030;-69
2022/06/28 01:26:19;;;;;;;41.92;11.07;;;30.40;36.30;;;;;;5012647;28;20030;-71
2022/06/28 01:28:46;;;;;;;39.15;11.90;;;30.40;36.50;;;;;;5012565;28;20030;-71
2022/06/28 01:31:12;;;;;;;38.85;11.95;;;30.40;36.20;;;;;;5012574;28;20032;-69
2022/06/28 01:33:39;;;;;;;43.35;12.20;;;30.40;36.10;;;;;;5012538;28;20030;-71
2022/06/28 01:36:07;;;;;;;46.35;12.50;;;30.40;36.50;;;;;;5012709;28;20030;-71
2022/06/28 01:38:34;;;;;;;38.22;11.43;;;30.40;36.60;;;;;;5013212;28;20530;-71
2022/06/28 01:41:01;;;;;;;51.47;13.32;;;30.30;36.60;;;;;;5012406;28;20069;-70
2022/06/28 01:43:29;;;;;;;47.85;15.63;;;30.30;36.80;;;;;;5012325;28;20026;-70
2022/06/28 01:45:55;;;;;;;55.60;15.25;;;30.30;36.60;;;;;;5012398;28;20022;-70
2022/06/28 01:48:21;;;;;;;39.92;15.23;;;30.30;36.70;;;;;;5012196;28;20025;-71
2022/06/28 01:50:48;;;;;;;45.28;16.73;;;30.30;36.60;;;;;;5013616;28;20092;-71
2022/06/28 01:53:14;;;;;;;56.10;18.83;;;30.30;36.80;;;;;;5014336;28;20032;-70
2022/06/28 01:55:41;;;;;;;45.33;18.35;;;30.30;36.90;;;;;;5015898;28;20030;-71
2022/06/28 01:58:07;;;;;;;54.25;17.95;;;30.20;36.80;;;;;;5015601;28;20030;-71
2022/06/28 02:00:33;;;;;;;57.72;19.85;;;30.30;37.00;;;;;;5015610;28;20034;-70
2022/06/28 02:02:59;;;;;;;53.38;18.02;;;30.20;36.70;;;;;;5015679;28;20045;-70
2022/06/28 02:05:25;;;;;;;50.75;18.40;;;30.20;37.10;;;;;;5015720;28;20029;-71
2022/06/28 02:07:52;;;;;;;44.33;18.42;;;30.20;36.90;;;;;;5015877;28;20026;-71
2022/06/28 02:10:18;;;;;;;51.00;18.83;;;30.10;37.30;;;;;;5015249;28;20030;-71
2022/06/28 02:12:45;;;;;;;48.72;18.63;;;30.10;37.40;;;;;;5015318;28;20479;-71
2022/06/28 02:15:11;;;;;;;53.60;18.80;;;30.00;37.40;;;;;;5013845;28;20124;-70
2022/06/28 02:17:37;;;;;;;50.95;18.25;;;30.10;37.30;;;;;;5015325;28;20030;-71
2022/06/28 02:20:03;;;;;;;54.60;18.60;;;30.00;37.30;;;;;;5014963;28;20034;-71
2022/06/28 02:22:29;;;;;;;56.20;18.88;;;30.00;37.40;;;;;;5015249;28;20018;-70
2022/06/28 02:24:55;;;;;;;46.92;18.45;;;30.00;37.50;;;;;;5015272;28;20030;-71
2022/06/28 02:27:20;;;;;;;51.63;18.38;;;29.90;37.40;;;;;;5013661;28;20029;-71
2022/06/28 02:29:47;;;;;;;53.92;17.70;;;29.90;37.40;;;;;;5015094;28;20034;-70
2022/06/28 02:32:13;;;;;;;51.92;18.85;;;30.00;37.70;;;;;;5015133;28;20582;-70
2022/06/28 02:40:24;;;;;;;46.08;17.20;;;29.80;37.80;;;;;;5014908;28;20383;-70
2022/06/28 02:42:58;;;;;;;52.33;17.13;;;29.80;37.50;;;;;;5014799;28;20418;-70
2022/06/28 02:45:26;;;;;;;51.90;17.10;;;29.80;37.50;;;;;;5014743;28;20045;-71
2022/06/28 02:47:52;;;;;;;53.22;17.35;;;29.80;37.60;;;;;;5014740;28;20053;-71
2022/06/28 02:50:18;;;;;;;50.47;17.38;;;29.80;37.70;;;;;;5014497;28;20046;-70
2022/06/28 02:52:44;;;;;;;46.15;17.77;;;29.80;37.80;;;;;;5014831;28;20041;-70
2022/06/28 02:55:10;;;;;;;51.08;17.02;;;29.80;37.90;;;;;;5014585;28;20037;-71
2022/06/28 02:57:36;;;;;;;46.97;17.65;;;29.70;37.90;;;;;;5013193;28;20029;-71
2022/06/28 03:00:13;;;;;;;51.42;16.95;;;29.70;38.10;;;;;;5014630;28;20030;-70
2022/06/28 03:02:41;;;;;;;50.42;17.83;;;29.70;38.70;;;;;;5013026;28;20030;-70
2022/06/28 03:05:09;;;;;;;48.55;17.85;;;29.60;38.30;;;;;;5014492;28;20468;-70
2022/06/28 03:07:35;;;;;;;45.13;17.60;;;29.60;38.70;;;;;;5014548;28;20471;-70
2022/06/28 03:10:01;;;;;;;45.63;17.13;;;29.60;38.60;;;;;;5014195;28;20034;-70
2022/06/28 03:12:26;;;;;;;45.75;16.67;;;29.50;38.60;;;;;;5014425;28;20046;-70
2022/06/28 03:14:52;;;;;;;59.45;16.73;;;29.50;38.60;;;;;;5014100;28;20076;-70
2022/06/28 03:17:18;;;;;;;43.00;15.27;;;29.50;38.50;;;;;;5014390;28;20026;-71
2022/06/28 03:19:44;;;;;;;56.13;16.33;;;29.40;38.50;;;;;;5014156;28;20038;-70
2022/06/28 03:22:10;;;;;;;52.60;16.35;;;29.40;38.80;;;;;;5014419;28;20080;-70
2022/06/28 03:24:35;;;;;;;39.13;14.52;;;29.40;38.70;;;;;;5012900;28;20030;-71
2022/06/28 03:27:02;;;;;;;52.55;15.82;;;29.30;38.80;;;;;;5013923;28;20508;-70
2022/06/28 03:29:27;;;;;;;45.13;15.73;;;29.30;38.90;;;;;;5014109;28;20022;-69
2022/06/28 03:31:53;;;;;;;42.08;14.73;;;29.20;39.10;;;;;;5014213;28;20080;-71
2022/06/28 03:34:19;;;;;;;43.35;15.02;;;29.20;39.20;;;;;;5013837;28;20483;-70
2022/06/28 03:36:46;;;;;;;50.53;15.20;;;29.20;39.40;;;;;;5013965;28;20467;-71
2022/06/28 03:39:13;;;;;;;47.15;15.27;;;29.20;39.30;;;;;;5013739;28;20037;-69
2022/06/28 03:41:38;;;;;;;45.80;15.18;;;29.20;39.20;;;;;;5014028;28;20344;-72
2022/06/28 03:44:05;;;;;;;45.30;14.70;;;29.10;39.20;;;;;;5014285;28;20494;-70
2022/06/28 03:46:30;;;;;;;39.60;14.05;;;29.20;39.30;;;;;;5013717;28;20034;-71
2022/06/28 03:48:56;;;;;;;43.00;14.00;;;29.10;39.00;;;;;;5014190;28;20072;-72
2022/06/28 03:51:22;;;;;;;52.67;14.40;;;29.10;39.20;;;;;;5013619;28;20077;-71
2022/06/28 03:53:48;;;;;;;46.92;13.80;;;29.10;39.10;;;;;;5013542;28;20476;-71
2022/06/28 03:56:14;;;;;;;46.67;15.13;;;29.10;38.90;;;;;;5013612;28;20058;-71
2022/06/28 03:58:39;;;;;;;38.65;14.13;;;29.10;39.10;;;;;;5012009;28;20555;-70
2022/06/28 04:01:05;;;;;;;50.10;14.07;;;29.00;39.10;;;;;;5013433;28;20021;-70
2022/06/28 04:03:31;;;;;;;42.70;13.95;;;29.00;39.10;;;;;;5013500;28;20041;-71
2022/06/28 04:05:57;;;;;;;44.25;14.65;;;29.10;39.30;;;;;;5012125;28;20467;-72
2022/06/28 04:08:22;;;;;;;39.60;13.32;;;29.10;39.00;;;;;;5013376;28;20105;-71
2022/06/28 04:10:49;;;;;;;49.83;13.88;;;29.10;38.90;;;;;;5013293;28;20010;-71
2022/06/28 04:13:15;;;;;;;39.20;13.60;;;29.10;39.00;;;;;;5012817;28;20022;-71
2022/06/28 04:15:40;;;;;;;38.40;12.70;;;29.10;38.80;;;;;;5013181;28;20132;-71
2022/06/28 04:18:06;;;;;;;40.15;12.60;;;29.10;38.80;;;;;;5013052;28;20034;-71
2022/06/28 04:20:33;;;;;;;37.88;12.88;;;29.10;38.60;;;;;;5013154;28;20033;-72
2022/06/28 04:22:59;;;;;;;51.22;13.05;;;29.10;39.00;;;;;;5012837;28;20021;-71
2022/06/28 04:25:25;;;;;;;41.08;12.75;;;29.00;38.80;;;;;;5012716;28;20498;-71
2022/06/28 04:27:56;;;;;;;41.47;12.65;;;29.00;38.80;;;;;;5012940;28;20030;-71
2022/06/28 04:30:22;;;;;;;38.63;13.23;;;29.00;38.60;;;;;;5011490;28;20483;-71
2022/06/28 04:32:48;;;;;;;47.67;12.38;;;29.00;38.50;;;;;;5013027;28;20048;-73
2022/06/28 04:35:14;;;;;;;45.85;13.32;;;29.10;38.50;;;;;;5013129;28;20463;-71
2022/06/28 04:37:39;;;;;;;44.22;12.45;;;29.10;38.40;;;;;;5011734;28;20068;-71
2022/06/28 04:40:05;;;;;;;36.92;11.98;;;29.10;38.40;;;;;;5012980;28;20030;-71
2022/06/28 04:42:31;;;;;;;30.45;11.35;;;29.20;38.40;;;;;;5013036;28;20555;-71
2022/06/28 04:44:57;;;;;;;46.47;12.48;;;29.20;38.50;;;;;;5013025;28;20025;-71
2022/06/28 04:47:22;;;;;;;34.55;11.02;;;29.20;38.30;;;;;;5013114;28;20463;-71
2022/06/28 04:49:48;;;;;;;45.65;12.90;;;29.30;38.30;;;;;;5012609;28;20056;-70
2022/06/28 04:52:14;;;;;;;42.53;12.13;;;29.30;37.90;;;;;;5012661;28;20390;-71
2022/06/28 04:54:39;;;;;;;40.30;12.13;;;29.30;37.80;;;;;;5013269;28;20276;-70
2022/06/28 04:57:05;;;;;;;47.58;12.30;;;29.20;38.00;;;;;;5012823;28;20143;-70
2022/06/28 04:59:31;;;;;;;43.45;11.82;;;29.30;38.00;;;;;;5012122;28;20042;-71
2022/06/28 05:01:57;;;;;;;51.95;12.63;;;29.30;38.00;;;;;;5012354;28;20013;-71
2022/06/28 05:04:23;;;;;;;51.15;12.90;;;29.40;38.30;;;;;;5012291;28;20387;-70
2022/06/28 05:06:48;;;;;;;55.05;12.98;;;29.50;38.10;;;;;;5012622;28;20061;-73
2022/06/28 05:09:14;;;;;;;45.50;12.00;;;29.60;37.90;;;;;;5011494;28;20040;-71
2022/06/28 05:11:40;;;;;;;42.10;12.77;;;29.60;37.80;;;;;;5012643;28;20518;-72
2022/06/28 05:14:06;;;;;;;55.42;13.05;;;29.70;37.70;;;;;;5012962;28;20029;-73
2022/06/28 05:16:32;;;;;;;41.33;11.93;;;29.80;37.50;;;;;;5011464;28;20030;-73
2022/06/28 05:18:58;;;;;;;49.70;13.32;;;29.90;37.20;;;;;;5013156;28;20038;-71
2022/06/28 05:21:24;;;;;;;43.78;12.50;;;30.10;37.10;;;;;;5012030;28;20014;-71
2022/06/28 05:23:51;;;;;;;50.45;11.55;;;30.30;37.20;;;;;;5012823;28;20092;-75
2022/06/28 05:26:17;;;;;;;40.17;12.27;;;30.50;36.40;;;;;;5014276;28;20553;-70
2022/06/28 05:28:42;;;;;;;43.63;13.55;;;30.80;36.10;;;;;;5015786;28;20025;-70
2022/06/28 05:31:08;;;;;;;45.63;12.18;;;31.10;35.70;;;;;;5015924;28;20025;-73
2022/06/28 05:33:34;;;;;;;42.72;12.63;;;31.40;35.30;;;;;;5015632;28;20025;-71
2022/06/28 05:35:59;;;;;;;52.95;11.73;;;31.70;34.90;;;;;;5015918;28;20025;-70
2022/06/28 05:38:25;;;;;;;52.45;12.27;;;31.90;34.40;;;;;;5016279;28;20119;-69
2022/06/28 05:40:51;;;;;;;55.25;13.25;;;32.20;34.30;;;;;;5015870;28;20030;-70
2022/06/28 05:43:16;;;;;;;54.85;12.77;;;32.40;33.80;;;;;;5014048;28;20022;-69
2022/06/28 05:45:42;;;;;;;50.45;12.02;;;32.60;33.70;;;;;;5016588;28;20034;-69
2022/06/28 05:48:08;;;;;;;42.92;11.43;;;32.90;33.30;;;;;;5016101;28;20022;-69
2022/06/28 05:50:34;;;;;;;49.95;11.32;;;33.00;33.00;;;;;;5015247;28;20057;-70
2022/06/28 05:52:59;;;;;;;38.03;10.75;;;33.20;33.10;;;;;;5014486;28;20029;-71
2022/06/28 05:55:25;;;;;;;47.72;11.63;;;33.50;32.60;;;;;;5016006;28;20036;-72
2022/06/28 05:57:51;;;;;;;44.53;12.55;;;33.60;32.00;;;;;;5015356;28;20033;-70
2022/06/28 06:00:17;;;;;;;44.30;13.43;;;33.80;32.60;;;;;;5014836;28;20040;-71
2022/06/28 06:02:43;;;;;;;53.80;13.75;;;34.10;31.90;;;;;;5015661;28;20018;-71
2022/06/28 06:05:09;;;;;;;50.65;12.35;;;34.20;31.80;;;;;;5015077;28;20026;-70
2022/06/28 06:07:35;;;;;;;61.13;13.20;;;34.50;31.60;;;;;;5015167;28;20077;-71
2022/06/28 06:10:00;;;;;;;54.85;12.88;;;34.50;30.80;;;;;;5015594;28;20108;-72
2022/06/28 06:12:26;;;;;;;63.63;13.88;;;34.60;30.60;;;;;;5015408;28;20364;-71
2022/06/28 06:14:52;;;;;;;47.05;11.65;;;34.60;30.50;;;;;;5015598;28;20026;-69
2022/06/28 06:17:18;;;;;;;53.50;10.57;;;34.70;30.60;;;;;;5015469;28;20022;-68
2022/06/28 06:19:44;;;;;;;56.03;10.43;;;34.60;30.40;;;;;;5014127;28;20052;-71
2022/06/28 06:22:10;;;;;;;63.08;10.70;;;34.70;30.30;;;;;;5013108;28;20381;-69
2022/06/28 06:24:36;;;;;;;47.95;9.80;;;34.80;30.00;;;;;;5014443;28;20037;-72
2022/06/28 06:27:02;;;;;;;43.85;9.95;;;34.90;29.80;;;;;;5014820;28;20471;-71
2022/06/28 06:29:28;;;;;;;59.80;11.57;;;35.10;29.50;;;;;;5014871;28;20428;-71
2022/06/28 06:31:53;;;;;;;47.65;10.85;;;35.30;29.40;;;;;;5015167;28;20059;-71
2022/06/28 06:34:19;;;;;;;45.65;12.30;;;35.50;29.90;;;;;;5013540;28;20022;-70
2022/06/28 06:36:46;;;;;;;59.97;11.48;;;35.70;29.60;;;;;;5013827;28;20021;-70
2022/06/28 06:39:13;;;;;;;54.42;13.00;;;35.80;29.40;;;;;;5014905;28;20422;-70
2022/06/28 06:41:38;;;;;;;49.78;11.55;;;36.00;29.50;;;;;;5014908;28;20022;-69
2022/06/28 06:44:04;;;;;;;47.53;10.40;;;36.20;29.40;;;;;;5014906;28;20442;-69
2022/06/28 06:46:30;;;;;;;50.50;10.95;;;36.40;29.40;;;;;;5014978;28;20026;-70
2022/06/28 06:48:56;;;;;;;46.97;9.48;;;36.50;29.10;;;;;;5014674;28;20061;-72
2022/06/28 06:51:22;;;;;;;43.80;9.75;;;36.80;29.00;;;;;;5014565;28;20137;-73
2022/06/28 06:53:48;;;;;;;41.00;10.30;;;36.80;28.70;;;;;;5014327;28;20057;-70
2022/06/28 06:56:13;;;;;;;43.35;9.45;;;37.00;28.30;;;;;;5014448;28;20060;-71
2022/06/28 06:58:39;;;;;;;50.47;10.70;;;37.10;28.50;;;;;;5014351;28;20034;-71
2022/06/28 07:01:05;;;;;;;43.25;8.93;;;37.30;28.40;;;;;;5014552;28;20014;-71
2022/06/28 07:03:31;;;;;;;44.40;8.77;;;37.40;27.90;;;;;;5013358;28;20448;-72
2022/06/28 07:05:56;;;;;;;46.30;11.00;;;37.50;27.60;;;;;;5014462;28;20029;-72
2022/06/28 07:08:22;;;;;;;48.72;11.05;;;37.60;27.90;;;;;;5014238;28;20463;-72
2022/06/28 07:10:48;;;;;;;44.55;10.00;;;37.70;27.40;;;;;;5014373;28;20029;-71
2022/06/28 07:13:14;;;;;;;42.28;10.45;;;37.70;27.30;;;;;;5014444;28;20030;-71
2022/06/28 07:15:40;;;;;;;44.03;9.52;;;37.90;26.80;;;;;;5014274;28;20037;-71
2022/06/28 07:18:07;;;;;;;45.80;9.20;;;38.00;26.70;;;;;;5013976;28;20539;-70
2022/06/28 07:20:33;;;;;;;47.05;9.35;;;38.10;26.00;;;;;;5014055;28;20032;-71
2022/06/28 07:22:58;;;;;;;48.63;8.95;;;38.10;25.60;;;;;;5014515;28;20026;-70
2022/06/28 07:25:26;;;;;;;38.17;9.07;;;38.20;25.40;;;;;;5014326;28;20084;-71
2022/06/28 07:27:51;;;;;;;34.38;8.50;;;38.20;24.90;;;;;;5014392;28;20038;-69
2022/06/28 07:30:21;;;;;;;36.53;8.68;;;38.20;24.90;;;;;;5014043;28;20545;-70
2022/06/28 07:32:46;;;;;;;56.30;9.82;;;38.20;24.60;;;;;;5013154;28;20080;-71
2022/06/28 07:35:12;;;;;;;40.63;8.00;;;38.30;24.20;;;;;;5014327;28;20367;-72
2022/06/28 07:37:38;;;;;;;35.88;7.95;;;38.30;24.10;;;;;;5014423;28;20386;-71
2022/06/28 07:40:06;;;;;;;44.55;8.23;;;38.20;23.70;;;;;;5014250;28;20463;-72
2022/06/28 07:42:31;;;;;;;36.15;8.00;;;38.30;24.00;;;;;;5013919;28;20034;-70
2022/06/28 07:44:57;;;;;;;44.38;8.27;;;38.20;23.50;;;;;;5013956;28;20541;-71
2022/06/28 07:47:23;;;;;;;32.42;7.82;;;38.30;23.20;;;;;;5012238;28;20481;-70
2022/06/28 07:52:33;;;;;;;44.60;8.30;;;38.20;23.70;;;;;;5013729;28;20045;-70
2022/06/28 07:55:00;;;;;;;43.35;8.20;;;38.30;23.70;;;;;;5012389;28;20104;-71
2022/06/28 07:57:26;;;;;;;35.65;7.55;;;38.30;23.50;;;;;;5013596;28;20022;-71
2022/06/28 07:59:52;;;;;;;38.75;8.48;;;38.30;23.40;;;;;;5013390;28;20042;-71
2022/06/28 08:02:18;;;;;;;39.50;8.10;;;38.30;23.40;;;;;;5013471;28;20049;-72
2022/06/28 08:04:45;;;;;;;38.03;7.68;;;38.30;23.50;;;;;;5012203;28;20482;-70
2022/06/28 08:07:11;;;;;;;34.35;8.48;;;38.20;23.70;;;;;;5013389;28;20403;-69
2022/06/28 08:09:37;;;;;;;38.10;8.75;;;38.20;23.50;;;;;;5013106;28;20030;-70
2022/06/28 08:12:04;;;;;;;43.53;8.75;;;38.20;23.90;;;;;;5013220;28;20085;-71
2022/06/28 08:14:29;;;;;;;41.33;7.68;;;38.20;24.00;;;;;;5013145;28;20026;-71
2022/06/28 08:16:56;;;;;;;36.58;8.60;;;38.10;23.70;;;;;;5013367;28;20032;-71
2022/06/28 08:19:22;;;;;;;37.42;8.43;;;38.10;23.70;;;;;;5013195;28;20088;-70
2022/06/28 08:21:49;;;;;;;38.22;7.13;;;38.10;23.80;;;;;;5013374;28;20022;-69
2022/06/28 08:24:17;;;;;;;43.22;8.20;;;38.00;23.90;;;;;;5013173;28;20066;-71
2022/06/28 08:26:43;;;;;;;36.00;7.25;;;37.90;24.00;;;;;;5011665;28;20018;-71
2022/06/28 08:29:14;;;;;;;30.00;6.88;;;37.80;24.00;;;;;;5012627;28;20032;-71
2022/06/28 08:31:41;;;;;;;37.28;8.05;;;37.70;23.90;;;;;;5013296;28;20491;-71
2022/06/28 08:34:07;;;;;;;46.33;7.90;;;37.80;24.10;;;;;;5013515;28;20033;-71
2022/06/28 08:36:33;;;;;;;39.05;6.65;;;37.70;24.00;;;;;;5012950;28;20025;-70
2022/06/28 08:38:59;;;;;;;33.88;7.68;;;37.70;24.20;;;;;;5012733;28;20495;-71
2022/06/28 08:41:28;;;;;;;37.05;7.78;;;37.60;24.10;;;;;;5012862;28;20022;-71
2022/06/28 08:43:55;;;;;;;30.85;7.03;;;37.60;24.00;;;;;;5012831;28;20383;-71
2022/06/28 08:46:22;;;;;;;42.03;7.78;;;37.60;24.30;;;;;;5012710;28;20025;-69
2022/06/28 08:49:01;;;;;;;34.90;6.90;;;37.50;24.20;;;;;;5011473;28;20033;-71
2022/06/28 08:51:32;;;;;;;35.53;7.90;;;37.60;24.20;;;;;;5012571;28;20124;-72
2022/06/28 08:54:01;;;;;;;39.55;8.35;;;37.70;24.10;;;;;;5013125;28;20045;-70
2022/06/28 08:56:27;;;;;;;33.85;7.88;;;37.70;24.00;;;;;;5011369;28;20359;-71
2022/06/28 08:58:58;;;;;;;40.97;7.70;;;37.70;23.90;;;;;;5012721;28;20486;-70
2022/06/28 09:01:26;;;;;;;32.20;7.60;;;37.70;23.80;;;;;;5016630;28;20128;-72
2022/06/28 09:03:53;;;;;;;32.38;6.60;;;37.70;24.30;;;;;;5016746;28;20044;-71
2022/06/28 09:06:21;;;;;;;31.73;6.90;;;37.70;23.80;;;;;;5015195;28;20026;-71
2022/06/28 09:08:46;;;;;;;39.42;7.85;;;37.70;23.90;;;;;;5015174;28;20434;-71
2022/06/28 09:11:13;;;;;;;39.03;7.68;;;37.70;23.90;;;;;;5016716;28;20026;-70
2022/06/28 09:13:41;;;;;;;36.97;7.22;;;37.80;23.80;;;;;;5016428;28;20467;-71
2022/06/28 09:16:07;;;;;;;38.35;7.47;;;37.80;23.80;;;;;;5014976;28;20109;-70
2022/06/28 09:18:35;;;;;;;33.15;7.07;;;37.80;22.40;;;;;;5016131;28;20109;-71
2022/06/28 09:21:04;;;;;;;32.95;5.88;;;37.80;23.60;;;;;;5016147;28;20144;-72
2022/06/28 09:23:33;;;;;;;35.42;6.57;;;37.80;23.80;;;;;;5015124;28;20064;-70
2022/06/28 09:26:08;;;;;;;51.55;9.05;;;37.80;23.60;;;;;;5016140;28;20096;-72
2022/06/28 09:28:39;;;;;;;32.03;6.85;;;37.90;23.90;;;;;;5016093;28;20105;-71
2022/06/28 09:31:15;;;;;;;39.80;6.50;;;38.00;23.30;;;;;;5015823;28;20026;-71
2022/06/28 09:33:50;;;;;;;31.65;6.90;;;38.10;22.90;;;;;;5016074;28;20099;-71
2022/06/28 09:36:18;;;;;;;28.95;6.25;;;38.20;23.20;;;;;;5016070;28;20033;-70
2022/06/28 09:38:44;;;;;;;34.30;6.25;;;38.30;22.50;;;;;;5015449;28;20041;-70
2022/06/28 09:41:26;;;;;;;31.13;7.28;;;38.30;22.30;;;;;;5015904;28;20097;-70
2022/06/28 09:44:00;;;;;;;26.52;6.07;;;38.40;22.00;;;;;;5015790;28;20055;-70
2022/06/28 09:46:32;;;;;;;31.85;7.00;;;38.40;22.10;;;;;;5015785;28;20033;-71
2022/06/28 09:49:03;;;;;;;37.53;7.72;;;38.30;22.10;;;;;;5014378;28;20498;-70
2022/06/28 09:51:31;;;;;;;28.88;6.95;;;38.40;22.50;;;;;;5015475;28;20037;-70
2022/06/28 09:54:00;;;;;;;33.50;7.03;;;38.40;22.10;;;;;;5015824;28;20092;-72
2022/06/28 09:56:27;;;;;;;29.15;6.68;;;38.50;21.90;;;;;;5015409;28;20046;-70
2022/06/28 09:58:54;;;;;;;33.47;6.53;;;38.60;21.80;;;;;;5015589;28;20038;-71
2022/06/28 10:01:20;;;;;;;27.15;7.28;;;38.70;22.10;;;;;;5015455;28;20026;-70
2022/06/28 10:03:48;;;;;;;28.15;6.47;;;38.80;21.80;;;;;;5015506;28;20540;-70
2022/06/28 10:06:15;;;;;;;33.33;6.78;;;38.90;21.90;;;;;;5015279;28;20026;-70
2022/06/28 10:08:42;;;;;;;37.40;7.00;;;38.90;21.90;;;;;;5014419;28;20428;-72
2022/06/28 10:11:10;;;;;;;26.80;6.85;;;38.90;22.00;;;;;;5014227;28;20048;-72
2022/06/28 10:16:55;;;;;;;34.08;6.80;;;38.80;21.90;;;;;;5015443;28;20080;-70
2022/06/28 10:19:21;;;;;;;30.45;6.75;;;38.90;22.70;;;;;;5014806;28;20121;-71
2022/06/28 10:21:53;;;;;;;32.85;6.78;;;38.90;22.00;;;;;;5015297;28;20026;-70
2022/06/28 10:24:20;;;;;;;33.38;7.95;;;38.90;22.50;;;;;;5015593;28;20065;-71
2022/06/28 10:27:06;;;;;;;31.23;6.78;;;38.90;22.00;;;;;;5015205;28;20467;-71
2022/06/28 10:29:32;;;;;;;30.38;6.20;;;39.00;21.60;;;;;;5014868;28;20021;-71
2022/06/28 10:31:58;;;;;;;35.00;7.32;;;39.00;21.60;;;;;;5015035;28;20025;-71
2022/06/28 10:34:47;;;;;;;32.55;7.10;;;39.10;21.20;;;;;;5014946;28;20022;-71
2022/06/28 10:37:13;;;;;;;27.50;7.28;;;39.10;21.60;;;;;;5014977;28;20136;-73
2022/06/28 10:39:38;;;;;;;34.05;7.45;;;39.10;21.40;;;;;;5013535;28;20117;-73
2022/06/28 10:42:12;;;;;;;33.22;7.13;;;39.00;21.30;;;;;;5014783;28;20033;-71
2022/06/28 10:44:37;;;;;;;29.80;6.57;;;39.10;21.20;;;;;;5014805;28;20360;-70
2022/06/28 10:47:06;;;;;;;23.10;6.68;;;39.10;21.20;;;;;;5015019;28;20463;-71
2022/06/28 10:49:46;;;;;;;34.40;7.28;;;39.00;21.40;;;;;;5013246;28;20042;-71
2022/06/28 10:52:22;;;;;;;26.95;7.45;;;39.00;21.30;;;;;;5015347;28;20050;-72
2022/06/28 10:54:56;;;;;;;28.40;7.13;;;38.90;21.70;;;;;;5014883;28;20029;-71
2022/06/28 10:57:26;;;;;;;28.90;7.05;;;39.00;21.80;;;;;;5014287;28;20084;-72
2022/06/28 10:59:56;;;;;;;33.85;7.35;;;38.90;21.80;;;;;;5014309;28;20060;-71
2022/06/28 11:02:23;;;;;;;27.15;6.72;;;38.90;21.40;;;;;;5015135;28;20080;-72
2022/06/28 11:05:09;;;;;;;28.77;7.35;;;38.90;21.50;;;;;;5015565;28;20038;-72
2022/06/28 11:07:37;;;;;;;28.98;7.05;;;38.90;21.90;;;;;;5014468;28;20026;-73
2022/06/28 11:10:05;;;;;;;29.13;7.53;;;38.90;21.10;;;;;;5014628;28;20053;-72
2022/06/28 11:12:35;;;;;;;38.65;7.55;;;38.90;21.60;;;;;;5014571;28;20136;-72
2022/06/28 11:15:37;;;;;;;28.88;5.97;;;38.90;21.40;;;;;;5014285;28;20034;-72
2022/06/28 11:18:14;;;;;;;38.65;6.57;;;38.80;21.60;;;;;;5014374;28;20038;-70
2022/06/28 11:20:39;;;;;;;31.00;6.72;;;38.90;21.30;;;;;;5014220;28;20064;-72
2022/06/28 11:23:06;;;;;;;34.78;7.35;;;38.90;21.30;;;;;;5014295;28;20017;-71
2022/06/28 11:28:15;;;;;;;38.92;7.43;;;38.90;21.60;;;;;;5013982;28;20183;-70
2022/06/28 11:30:42;;;;;;;32.92;6.22;;;38.80;21.30;;;;;;5013948;28;20026;-70
2022/06/28 11:33:10;;;;;;;26.63;6.15;;;38.70;21.20;;;;;;5014054;28;20026;-71
2022/06/28 11:35:36;;;;;;;35.40;7.25;;;38.70;21.40;;;;;;5014153;28;20404;-72
2022/06/28 11:38:05;;;;;;;33.72;6.50;;;38.60;21.50;;;;;;5013926;28;20040;-71
2022/06/28 11:40:49;;;;;;;29.75;6.57;;;38.60;21.60;;;;;;5013605;28;20040;-72
2022/06/28 11:43:18;;;;;;;28.70;6.38;;;38.50;21.90;;;;;;5014055;28;20376;-72
2022/06/28 11:45:52;;;;;;;27.27;5.70;;;38.40;21.50;;;;;;5012498;28;20034;-70
2022/06/28 11:48:33;;;;;;;24.83;6.35;;;38.30;21.60;;;;;;5013802;28;20100;-72
2022/06/28 11:51:00;;;;;;;35.10;10.00;;;38.30;22.00;;;;;;5013727;28;20081;-71
2022/06/28 11:53:29;;;;;;;39.33;15.18;;;38.20;21.80;;;;;;5014131;28;20475;-72
2022/06/28 11:55:59;;;;;;;39.60;20.75;;;38.10;21.70;;;;;;5012805;28;20050;-71
2022/06/28 11:58:29;;;;;;;39.97;19.90;;;38.00;21.70;;;;;;5013745;28;20057;-72
2022/06/28 12:01:15;;;;;;;50.33;15.60;;;37.90;22.00;;;;;;5013604;28;20029;-73
2022/06/28 12:03:43;;;;;;;30.15;11.30;;;37.80;22.60;;;;;;5013613;28;20022;-72
2022/06/28 12:06:13;;;;;;;32.72;10.85;;;37.70;23.10;;;;;;5013986;28;20029;-70
2022/06/28 12:08:50;;;;;;;39.08;11.27;;;37.60;23.00;;;;;;5013796;28;20033;-72
2022/06/28 12:11:36;;;;;;;37.65;11.52;;;37.60;22.90;;;;;;5013338;28;20116;-72
2022/06/28 12:14:16;;;;;;;34.45;9.90;;;37.50;23.20;;;;;;5014118;28;20112;-71
2022/06/28 12:16:44;;;;;;;46.20;9.15;;;37.50;23.90;;;;;;5013359;28;20421;-71
2022/06/28 12:19:14;;;;;;;71.55;9.95;;;37.40;27.10;;;;;;5013273;28;20127;-71
2022/06/28 12:21:56;;;;;;;64.35;10.15;;;37.00;31.70;;;;;;5013364;28;20026;-73
2022/06/28 12:24:36;;;;;;;49.45;9.30;;;36.60;33.70;;;;;;5013217;28;20462;-73
2022/06/28 12:27:02;;;;;;;47.05;8.38;;;36.30;35.50;;;;;;5013087;28;20470;-73
2022/06/28 12:29:28;;;;;;;43.55;9.05;;;36.10;36.70;;;;;;5013213;28;20022;-71
2022/06/28 12:31:54;;;;;;;66.05;10.95;;;35.90;37.70;;;;;;5013059;28;20371;-71
2022/06/28 12:34:20;;;;;;;62.97;9.40;;;35.60;39.50;;;;;;5012760;28;20029;-72
2022/06/28 12:36:46;;;;;;;47.45;8.50;;;35.40;40.10;;;;;;5012685;28;20503;-71
2022/06/28 12:39:11;;;;;;;50.70;8.75;;;35.40;40.60;;;;;;5012967;28;20038;-71
2022/06/28 12:41:37;;;;;;;50.40;8.68;;;35.40;41.10;;;;;;5012711;28;20044;-72
2022/06/28 12:44:03;;;;;;;36.15;7.28;;;35.30;41.80;;;;;;5012853;28;20030;-73
2022/06/28 12:46:29;;;;;;;35.25;7.88;;;35.20;42.40;;;;;;5012866;28;20113;-71
2022/06/28 12:48:55;;;;;;;41.13;8.18;;;34.90;42.50;;;;;;5012684;28;20061;-72